Terminal Aerodrome Forecast
Issued by NWS Cleveland, OH

Home | Current Version | Previous Version | Text Only | Print | Product List | Glossary On
Versions: 1 2 3 4 5 6 7 8 9 10 11 12 13 14 15 16 17 18 19 20 21 22 23 24 25 26 27
000
FTUS41 KCLE 261400 AAA
TAFCAK
TAF AMD
KCAK 261421Z 2614/2712 01012KT 1 1/2SM -SN BR OVC020
      TEMPO 2614/2617 3SM -SN BR OVC009
     FM261700 03012KT 5SM -SN BR BKN010 OVC020
     FM262200 36010KT 6SM -SN OVC025
     FM270200 36006KT P6SM VCSH OVC015=

USA.gov is the U.S. government's official web portal to all federal, state and local government web resources and services.